sensor_id;sensor_type;location;lat;lon;timestamp;pressure;altitude;pressure_sealevel;temperature;humidity
64200;BME280;50516;52.272;5.136;2023-02-17T00:00:06;101857.88;;;10.33;100.00
64200;BME280;50516;52.272;5.136;2023-02-17T00:02:32;101853.81;;;10.35;100.00
64200;BME280;50516;52.272;5.136;2023-02-17T00:04:58;101848.56;;;10.34;100.00
64200;BME280;50516;52.272;5.136;2023-02-17T00:07:23;101850.59;;;10.27;100.00
64200;BME280;50516;52.272;5.136;2023-02-17T00:09:49;101844.59;;;10.30;100.00
64200;BME280;50516;52.272;5.136;2023-02-17T00:12:14;101856.81;;;10.22;100.00
64200;BME280;50516;52.272;5.136;2023-02-17T00:14:40;101843.78;;;10.29;100.00
64200;BME280;50516;52.272;5.136;2023-02-17T00:17:05;101852.38;;;10.33;100.00
64200;BME280;50516;52.272;5.136;2023-02-17T00:19:31;101850.69;;;10.32;100.00
64200;BME280;50516;52.272;5.136;2023-02-17T00:22:00;101850.34;;;10.40;100.00
64200;BME280;50516;52.272;5.136;2023-02-17T00:24:29;101858.09;;;10.31;100.00
64200;BME280;50516;52.272;5.136;2023-02-17T00:26:55;101850.47;;;10.33;100.00
64200;BME280;50516;52.272;5.136;2023-02-17T00:29:20;101839.84;;;10.25;100.00
64200;BME280;50516;52.272;5.136;2023-02-17T00:31:46;101835.22;;;10.26;100.00
64200;BME280;50516;52.272;5.136;2023-02-17T00:34:12;101842.09;;;10.28;100.00
64200;BME280;50516;52.272;5.136;2023-02-17T00:36:38;101848.69;;;10.27;100.00
64200;BME280;50516;52.272;5.136;2023-02-17T00:39:05;101843.09;;;10.22;100.00
64200;BME280;50516;52.272;5.136;2023-02-17T00:41:30;101841.94;;;10.18;100.00
64200;BME280;50516;52.272;5.136;2023-02-17T00:43:56;101836.28;;;10.24;100.00
64200;BME280;50516;52.272;5.136;2023-02-17T00:46:23;101836.44;;;10.18;100.00
64200;BME280;50516;52.272;5.136;2023-02-17T00:48:49;101831.84;;;10.07;100.00
64200;BME280;50516;52.272;5.136;2023-02-17T00:51:15;101822.38;;;10.14;100.00
64200;BME280;50516;52.272;5.136;2023-02-17T00:53:41;101820.94;;;10.12;100.00
64200;BME280;50516;52.272;5.136;2023-02-17T00:56:07;101827.25;;;10.12;100.00
64200;BME280;50516;52.272;5.136;2023-02-17T00:58:33;101824.28;;;10.14;100.00
64200;BME280;50516;52.272;5.136;2023-02-17T01:00:59;101831.09;;;10.11;100.00
64200;BME280;50516;52.272;5.136;2023-02-17T01:03:25;101821.34;;;10.03;100.00
64200;BME280;50516;52.272;5.136;2023-02-17T01:05:51;101836.84;;;10.10;100.00
64200;BME280;50516;52.272;5.136;2023-02-17T01:08:19;101837.56;;;10.05;100.00
64200;BME280;50516;52.272;5.136;2023-02-17T01:10:46;101839.13;;;10.01;100.00
64200;BME280;50516;52.272;5.136;2023-02-17T01:13:13;101847.09;;;10.02;100.00
64200;BME280;50516;52.272;5.136;2023-02-17T01:15:57;101836.38;;;10.01;100.00
64200;BME280;50516;52.272;5.136;2023-02-17T01:18:23;101835.94;;;9.92;100.00
64200;BME280;50516;52.272;5.136;2023-02-17T01:20:49;101829.88;;;9.90;100.00
64200;BME280;50516;52.272;5.136;2023-02-17T01:23:15;101831.03;;;9.94;100.00
64200;BME280;50516;52.272;5.136;2023-02-17T01:25:43;101834.75;;;9.88;100.00
64200;BME280;50516;52.272;5.136;2023-02-17T01:28:14;101831.50;;;9.91;100.00
64200;BME280;50516;52.272;5.136;2023-02-17T01:30:39;101831.47;;;9.74;100.00
64200;BME280;50516;52.272;5.136;2023-02-17T01:33:05;101834.06;;;9.81;100.00
64200;BME280;50516;52.272;5.136;2023-02-17T01:35:32;101823.09;;;9.81;100.00
64200;BME280;50516;52.272;5.136;2023-02-17T01:38:00;101834.50;;;9.90;100.00
64200;BME280;50516;52.272;5.136;2023-02-17T01:40:25;101829.38;;;9.93;100.00
64200;BME280;50516;52.272;5.136;2023-02-17T01:42:51;101825.44;;;9.89;100.00
64200;BME280;50516;52.272;5.136;2023-02-17T01:47:53;101824.16;;;9.80;100.00
64200;BME280;50516;52.272;5.136;2023-02-17T01:50:27;101814.16;;;9.74;100.00
64200;BME280;50516;52.272;5.136;2023-02-17T01:52:55;101820.19;;;9.87;100.00
64200;BME280;50516;52.272;5.136;2023-02-17T01:55:23;101826.31;;;9.78;100.00
64200;BME280;50516;52.272;5.136;2023-02-17T01:57:50;101816.56;;;9.70;100.00
64200;BME280;50516;52.272;5.136;2023-02-17T02:00:19;101812.75;;;9.71;100.00
64200;BME280;50516;52.272;5.136;2023-02-17T02:02:47;101796.03;;;9.73;100.00
64200;BME280;50516;52.272;5.136;2023-02-17T02:05:15;101786.03;;;9.66;100.00
64200;BME280;50516;52.272;5.136;2023-02-17T02:07:43;101799.66;;;9.61;100.00
64200;BME280;50516;52.272;5.136;2023-02-17T02:10:12;101781.75;;;9.71;100.00
64200;BME280;50516;52.272;5.136;2023-02-17T02:12:40;101776.28;;;9.71;100.00
64200;BME280;50516;52.272;5.136;2023-02-17T02:15:18;101779.50;;;9.67;100.00
64200;BME280;50516;52.272;5.136;2023-02-17T02:17:47;101771.59;;;9.71;100.00
64200;BME280;50516;52.272;5.136;2023-02-17T02:20:31;101780.22;;;9.63;100.00
64200;BME280;50516;52.272;5.136;2023-02-17T02:26:15;101784.50;;;9.71;100.00
64200;BME280;50516;52.272;5.136;2023-02-17T02:31:58;101771.13;;;9.74;100.00
64200;BME280;50516;52.272;5.136;2023-02-17T02:35:11;101772.97;;;9.57;100.00
64200;BME280;50516;52.272;5.136;2023-02-17T02:37:52;101780.22;;;9.63;100.00
64200;BME280;50516;52.272;5.136;2023-02-17T02:40:23;101778.19;;;9.58;100.00
64200;BME280;50516;52.272;5.136;2023-02-17T02:42:50;101771.91;;;9.58;100.00
64200;BME280;50516;52.272;5.136;2023-02-17T02:45:17;101764.16;;;9.43;100.00
64200;BME280;50516;52.272;5.136;2023-02-17T02:47:53;101763.19;;;9.49;100.00
64200;BME280;50516;52.272;5.136;2023-02-17T02:50:19;101759.88;;;9.47;100.00
64200;BME280;50516;52.272;5.136;2023-02-17T02:58:07;101755.69;;;9.56;100.00
64200;BME280;50516;52.272;5.136;2023-02-17T03:00:49;101762.22;;;9.55;100.00
64200;BME280;50516;52.272;5.136;2023-02-17T03:03:47;101759.97;;;9.52;100.00
64200;BME280;50516;52.272;5.136;2023-02-17T03:06:19;101761.56;;;9.48;100.00
64200;BME280;50516;52.272;5.136;2023-02-17T03:08:52;101750.88;;;9.63;100.00
64200;BME280;50516;52.272;5.136;2023-02-17T03:11:22;101743.28;;;9.54;100.00
64200;BME280;50516;52.272;5.136;2023-02-17T03:14:00;101740.78;;;9.52;100.00
64200;BME280;50516;52.272;5.136;2023-02-17T03:16:26;101742.47;;;9.53;100.00
64200;BME280;50516;52.272;5.136;2023-02-17T03:18:51;101741.28;;;9.49;100.00
64200;BME280;50516;52.272;5.136;2023-02-17T03:21:17;101723.66;;;9.45;100.00
64200;BME280;50516;52.272;5.136;2023-02-17T03:23:43;101720.53;;;9.53;100.00
64200;BME280;50516;52.272;5.136;2023-02-17T03:26:08;101705.97;;;9.53;100.00
64200;BME280;50516;52.272;5.136;2023-02-17T03:28:34;101705.16;;;9.52;100.00
64200;BME280;50516;52.272;5.136;2023-02-17T03:30:59;101702.97;;;9.54;100.00
64200;BME280;50516;52.272;5.136;2023-02-17T03:33:25;101699.41;;;9.54;100.00
64200;BME280;50516;52.272;5.136;2023-02-17T03:35:50;101704.84;;;9.65;100.00
64200;BME280;50516;52.272;5.136;2023-02-17T03:38:15;101698.50;;;9.48;100.00
64200;BME280;50516;52.272;5.136;2023-02-17T03:40:41;101700.88;;;9.44;100.00
64200;BME280;50516;52.272;5.136;2023-02-17T03:43:06;101691.25;;;9.42;100.00
64200;BME280;50516;52.272;5.136;2023-02-17T03:45:35;101700.06;;;9.44;100.00
64200;BME280;50516;52.272;5.136;2023-02-17T03:48:00;101703.03;;;9.42;100.00
64200;BME280;50516;52.272;5.136;2023-02-17T03:50:25;101709.16;;;9.32;100.00
64200;BME280;50516;52.272;5.136;2023-02-17T03:52:51;101700.28;;;9.42;100.00
64200;BME280;50516;52.272;5.136;2023-02-17T03:55:16;101695.41;;;9.44;100.00
64200;BME280;50516;52.272;5.136;2023-02-17T03:57:42;101690.63;;;9.40;100.00
64200;BME280;50516;52.272;5.136;2023-02-17T04:00:07;101686.94;;;9.46;100.00
64200;BME280;50516;52.272;5.136;2023-02-17T04:02:33;101688.03;;;9.45;100.00
64200;BME280;50516;52.272;5.136;2023-02-17T04:04:59;101697.47;;;9.37;100.00
64200;BME280;50516;52.272;5.136;2023-02-17T04:07:24;101703.03;;;9.42;100.00
64200;BME280;50516;52.272;5.136;2023-02-17T04:09:49;101691.81;;;9.44;100.00
64200;BME280;50516;52.272;5.136;2023-02-17T04:12:15;101710.81;;;9.34;100.00
64200;BME280;50516;52.272;5.136;2023-02-17T04:14:40;101709.63;;;9.29;100.00
64200;BME280;50516;52.272;5.136;2023-02-17T04:17:05;101713.09;;;9.25;100.00
64200;BME280;50516;52.272;5.136;2023-02-17T04:19:31;101708.19;;;9.39;100.00
64200;BME280;50516;52.272;5.136;2023-02-17T04:21:56;101711.41;;;9.36;100.00
64200;BME280;50516;52.272;5.136;2023-02-17T04:24:22;101701.50;;;9.35;100.00
64200;BME280;50516;52.272;5.136;2023-02-17T04:26:47;101690.41;;;9.41;100.00
64200;BME280;50516;52.272;5.136;2023-02-17T04:29:12;101684.66;;;9.43;100.00
64200;BME280;50516;52.272;5.136;2023-02-17T04:31:38;101684.78;;;9.48;100.00
64200;BME280;50516;52.272;5.136;2023-02-17T04:34:03;101677.31;;;9.43;100.00
64200;BME280;50516;52.272;5.136;2023-02-17T04:36:28;101681.09;;;9.42;100.00
64200;BME280;50516;52.272;5.136;2023-02-17T04:38:54;101689.09;;;9.44;100.00
64200;BME280;50516;52.272;5.136;2023-02-17T04:41:19;101678.03;;;9.39;100.00
64200;BME280;50516;52.272;5.136;2023-02-17T04:43:46;101677.53;;;9.42;100.00
64200;BME280;50516;52.272;5.136;2023-02-17T04:46:11;101674.56;;;9.43;100.00
64200;BME280;50516;52.272;5.136;2023-02-17T04:48:37;101679.97;;;9.55;100.00
64200;BME280;50516;52.272;5.136;2023-02-17T04:51:02;101682.06;;;9.48;100.00
64200;BME280;50516;52.272;5.136;2023-02-17T04:53:28;101679.91;;;9.50;100.00
64200;BME280;50516;52.272;5.136;2023-02-17T04:55:53;101678.78;;;9.51;100.00
64200;BME280;50516;52.272;5.136;2023-02-17T04:58:19;101675.97;;;9.46;100.00
64200;BME280;50516;52.272;5.136;2023-02-17T05:00:46;101690.75;;;9.45;100.00
64200;BME280;50516;52.272;5.136;2023-02-17T05:03:12;101693.03;;;9.48;100.00
64200;BME280;50516;52.272;5.136;2023-02-17T05:05:37;101696.50;;;9.43;100.00
64200;BME280;50516;52.272;5.136;2023-02-17T05:08:02;101697.75;;;9.53;100.00
64200;BME280;50516;52.272;5.136;2023-02-17T05:10:28;101692.41;;;9.46;100.00
64200;BME280;50516;52.272;5.136;2023-02-17T05:12:53;101690.53;;;9.46;100.00
64200;BME280;50516;52.272;5.136;2023-02-17T05:15:19;101682.53;;;9.45;100.00
64200;BME280;50516;52.272;5.136;2023-02-17T05:17:44;101682.63;;;9.50;100.00
64200;BME280;50516;52.272;5.136;2023-02-17T05:20:10;101686.69;;;9.47;100.00
64200;BME280;50516;52.272;5.136;2023-02-17T05:22:36;101683.47;;;9.50;100.00
64200;BME280;50516;52.272;5.136;2023-02-17T05:25:02;101695.94;;;9.58;100.00
64200;BME280;50516;52.272;5.136;2023-02-17T05:27:27;101680.22;;;9.54;100.00
64200;BME280;50516;52.272;5.136;2023-02-17T05:29:53;101665.31;;;9.61;100.00
64200;BME280;50516;52.272;5.136;2023-02-17T05:32:18;101679.75;;;9.57;100.00
64200;BME280;50516;52.272;5.136;2023-02-17T05:34:43;101677.72;;;9.52;100.00
64200;BME280;50516;52.272;5.136;2023-02-17T05:37:09;101669.03;;;9.55;100.00
64200;BME280;50516;52.272;5.136;2023-02-17T05:39:35;101654.09;;;9.63;100.00
64200;BME280;50516;52.272;5.136;2023-02-17T05:42:00;101661.63;;;9.56;100.00
64200;BME280;50516;52.272;5.136;2023-02-17T05:44:26;101660.88;;;9.60;100.00
64200;BME280;50516;52.272;5.136;2023-02-17T05:46:51;101643.78;;;9.53;100.00
64200;BME280;50516;52.272;5.136;2023-02-17T05:49:16;101644.09;;;9.57;100.00
64200;BME280;50516;52.272;5.136;2023-02-17T05:51:42;101650.16;;;9.59;100.00
64200;BME280;50516;52.272;5.136;2023-02-17T05:54:07;101642.44;;;9.56;100.00
64200;BME280;50516;52.272;5.136;2023-02-17T05:56:33;101647.09;;;9.55;100.00
64200;BME280;50516;52.272;5.136;2023-02-17T05:58:58;101643.94;;;9.63;100.00
64200;BME280;50516;52.272;5.136;2023-02-17T06:01:25;101650.16;;;9.59;100.00
64200;BME280;50516;52.272;5.136;2023-02-17T06:03:50;101647.66;;;9.57;100.00
64200;BME280;50516;52.272;5.136;2023-02-17T06:06:15;101646.19;;;9.66;100.00
64200;BME280;50516;52.272;5.136;2023-02-17T06:08:41;101651.94;;;9.65;100.00
64200;BME280;50516;52.272;5.136;2023-02-17T06:11:06;101652.50;;;9.67;100.00
64200;BME280;50516;52.272;5.136;2023-02-17T06:13:32;101652.50;;;9.67;100.00
64200;BME280;50516;52.272;5.136;2023-02-17T06:15:57;101642.13;;;9.69;100.00
64200;BME280;50516;52.272;5.136;2023-02-17T06:18:23;101644.53;;;9.65;100.00
64200;BME280;50516;52.272;5.136;2023-02-17T06:20:48;101635.81;;;9.68;100.00
64200;BME280;50516;52.272;5.136;2023-02-17T06:23:14;101633.44;;;9.72;100.00
64200;BME280;50516;52.272;5.136;2023-02-17T06:25:39;101634.16;;;9.67;100.00
64200;BME280;50516;52.272;5.136;2023-02-17T06:28:04;101609.00;;;9.71;100.00
64200;BME280;50516;52.272;5.136;2023-02-17T06:30:30;101610.38;;;9.73;100.00
64200;BME280;50516;52.272;5.136;2023-02-17T06:32:56;101619.34;;;9.68;100.00
64200;BME280;50516;52.272;5.136;2023-02-17T06:35:22;101612.81;;;9.69;100.00
64200;BME280;50516;52.272;5.136;2023-02-17T06:37:47;101620.53;;;9.73;100.00
64200;BME280;50516;52.272;5.136;2023-02-17T06:40:13;101606.25;;;9.71;100.00
64200;BME280;50516;52.272;5.136;2023-02-17T06:42:38;101607.66;;;9.73;100.00
64200;BME280;50516;52.272;5.136;2023-02-17T06:45:04;101609.56;;;9.73;100.00
64200;BME280;50516;52.272;5.136;2023-02-17T06:47:31;101616.59;;;9.68;100.00
64200;BME280;50516;52.272;5.136;2023-02-17T06:49:57;101599.66;;;9.72;100.00
64200;BME280;50516;52.272;5.136;2023-02-17T06:52:22;101601.09;;;9.74;100.00
64200;BME280;50516;52.272;5.136;2023-02-17T06:54:48;101596.69;;;9.73;100.00
64200;BME280;50516;52.272;5.136;2023-02-17T06:57:13;101597.13;;;9.82;100.00
64200;BME280;50516;52.272;5.136;2023-02-17T06:59:38;101610.06;;;9.86;100.00
64200;BME280;50516;52.272;5.136;2023-02-17T07:02:04;101615.72;;;9.80;100.00
64200;BME280;50516;52.272;5.136;2023-02-17T07:04:29;101609.72;;;9.83;100.00
64200;BME280;50516;52.272;5.136;2023-02-17T07:06:54;101619.63;;;9.84;100.00
64200;BME280;50516;52.272;5.136;2023-02-17T07:09:20;101633.09;;;9.85;100.00
64200;BME280;50516;52.272;5.136;2023-02-17T07:11:45;101636.75;;;9.91;100.00
64200;BME280;50516;52.272;5.136;2023-02-17T07:14:10;101642.22;;;9.91;100.00
64200;BME280;50516;52.272;5.136;2023-02-17T07:16:36;101653.69;;;9.88;100.00
64200;BME280;50516;52.272;5.136;2023-02-17T07:19:01;101635.09;;;9.90;100.00
64200;BME280;50516;52.272;5.136;2023-02-17T07:21:27;101627.19;;;9.94;100.00
64200;BME280;50516;52.272;5.136;2023-02-17T07:23:52;101623.03;;;9.91;100.00
64200;BME280;50516;52.272;5.136;2023-02-17T07:26:17;101622.03;;;9.97;100.00
64200;BME280;50516;52.272;5.136;2023-02-17T07:28:43;101621.78;;;9.99;100.00
64200;BME280;50516;52.272;5.136;2023-02-17T07:31:13;101609.75;;;10.00;100.00
64200;BME280;50516;52.272;5.136;2023-02-17T07:33:41;101622.97;;;10.03;100.00
64200;BME280;50516;52.272;5.136;2023-02-17T07:36:09;101617.81;;;10.07;100.00
64200;BME280;50516;52.272;5.136;2023-02-17T07:38:35;101618.63;;;10.07;100.00
64200;BME280;50516;52.272;5.136;2023-02-17T07:41:11;101622.47;;;10.06;100.00
64200;BME280;50516;52.272;5.136;2023-02-17T07:43:37;101613.38;;;10.05;100.00
64200;BME280;50516;52.272;5.136;2023-02-17T07:46:04;101620.38;;;10.13;100.00
64200;BME280;50516;52.272;5.136;2023-02-17T07:48:29;101617.38;;;10.15;100.00
64200;BME280;50516;52.272;5.136;2023-02-17T07:50:55;101617.13;;;10.16;100.00
64200;BME280;50516;52.272;5.136;2023-02-17T07:53:20;101613.56;;;10.16;100.00
64200;BME280;50516;52.272;5.136;2023-02-17T07:55:46;101613.56;;;10.16;100.00
64200;BME280;50516;52.272;5.136;2023-02-17T07:58:12;101635.16;;;10.12;100.00
64200;BME280;50516;52.272;5.136;2023-02-17T08:00:37;101637.16;;;10.17;100.00
64200;BME280;50516;52.272;5.136;2023-02-17T08:03:02;101627.63;;;10.19;100.00
64200;BME280;50516;52.272;5.136;2023-02-17T08:05:28;101637.16;;;10.17;100.00
64200;BME280;50516;52.272;5.136;2023-02-17T08:07:53;101640.22;;;10.20;100.00
64200;BME280;50516;52.272;5.136;2023-02-17T08:10:37;101637.41;;;10.15;100.00
64200;BME280;50516;52.272;5.136;2023-02-17T08:13:22;101645.47;;;10.22;100.00
64200;BME280;50516;52.272;5.136;2023-02-17T08:15:48;101656.38;;;10.17;100.00
64200;BME280;50516;52.272;5.136;2023-02-17T08:18:13;101674.19;;;10.14;100.00
64200;BME280;50516;52.272;5.136;2023-02-17T08:20:38;101683.81;;;10.17;100.00
64200;BME280;50516;52.272;5.136;2023-02-17T08:23:04;101677.59;;;10.21;100.00
64200;BME280;50516;52.272;5.136;2023-02-17T08:25:33;101655.22;;;10.30;100.00
64200;BME280;50516;52.272;5.136;2023-02-17T08:28:00;101666.44;;;10.28;100.00
64200;BME280;50516;52.272;5.136;2023-02-17T08:30:25;101648.00;;;10.40;100.00
64200;BME280;50516;52.272;5.136;2023-02-17T08:32:51;101671.78;;;10.35;100.00
64200;BME280;50516;52.272;5.136;2023-02-17T08:35:16;101694.84;;;10.34;100.00
64200;BME280;50516;52.272;5.136;2023-02-17T08:37:47;101683.41;;;10.25;100.00
64200;BME280;50516;52.272;5.136;2023-02-17T08:40:13;101688.88;;;10.25;100.00
64200;BME280;50516;52.272;5.136;2023-02-17T08:42:39;101696.06;;;10.26;100.00
64200;BME280;50516;52.272;5.136;2023-02-17T08:45:04;101691.25;;;10.33;100.00
64200;BME280;50516;52.272;5.136;2023-02-17T08:47:30;101683.41;;;10.25;100.00
64200;BME280;50516;52.272;5.136;2023-02-17T08:49:55;101681.25;;;10.27;100.00
64200;BME280;50516;52.272;5.136;2023-02-17T08:52:21;101679.34;;;10.28;100.00
64200;BME280;50516;52.272;5.136;2023-02-17T08:54:46;101680.25;;;10.33;100.00
64200;BME280;50516;52.272;5.136;2023-02-17T08:57:11;101676.53;;;10.39;100.00
64200;BME280;50516;52.272;5.136;2023-02-17T08:59:37;101680.53;;;10.49;100.00
64200;BME280;50516;52.272;5.136;2023-02-17T09:02:02;101697.06;;;10.54;100.00
64200;BME280;50516;52.272;5.136;2023-02-17T09:04:28;101690.56;;;10.60;100.00
64200;BME280;50516;52.272;5.136;2023-02-17T09:06:54;101678.16;;;10.74;100.00
64200;BME280;50516;52.272;5.136;2023-02-17T09:09:22;101678.16;;;10.74;100.00
64200;BME280;50516;52.272;5.136;2023-02-17T09:11:51;101684.72;;;10.73;100.00
64200;BME280;50516;52.272;5.136;2023-02-17T09:14:18;101670.53;;;10.82;100.00
64200;BME280;50516;52.272;5.136;2023-02-17T09:16:43;101669.16;;;10.79;100.00
64200;BME280;50516;52.272;5.136;2023-02-17T09:19:08;101669.97;;;10.80;100.00
64200;BME280;50516;52.272;5.136;2023-02-17T09:21:34;101668.91;;;10.81;100.00
64200;BME280;50516;52.272;5.136;2023-02-17T09:23:59;101673.38;;;10.87;100.00
64200;BME280;50516;52.272;5.136;2023-02-17T09:26:24;101674.72;;;10.84;100.00
64200;BME280;50516;52.272;5.136;2023-02-17T09:28:50;101674.03;;;10.94;100.00
64200;BME280;50516;52.272;5.136;2023-02-17T09:31:21;101678.25;;;11.02;100.00
64200;BME280;50516;52.272;5.136;2023-02-17T09:33:47;101667.78;;;11.21;100.00
64200;BME280;50516;52.272;5.136;2023-02-17T09:36:16;101669.56;;;11.32;100.00
64200;BME280;50516;52.272;5.136;2023-02-17T09:38:42;101661.47;;;11.47;100.00
64200;BME280;50516;52.272;5.136;2023-02-17T09:41:35;101657.13;;;11.51;100.00
64200;BME280;50516;52.272;5.136;2023-02-17T09:44:06;101646.63;;;11.48;100.00
64200;BME280;50516;52.272;5.136;2023-02-17T09:46:45;101652.13;;;11.48;100.00
64200;BME280;50516;52.272;5.136;2023-02-17T09:49:20;101665.50;;;11.40;100.00
64200;BME280;50516;52.272;5.136;2023-02-17T09:52:10;101660.00;;;11.40;100.00
64200;BME280;50516;52.272;5.136;2023-02-17T09:55:08;101668.03;;;11.46;100.00
64200;BME280;50516;52.272;5.136;2023-02-17T09:57:39;101666.53;;;11.33;100.00
64200;BME280;50516;52.272;5.136;2023-02-17T10:00:11;101668.00;;;11.41;100.00
64200;BME280;50516;52.272;5.136;2023-02-17T10:02:54;101676.88;;;11.48;100.00
64200;BME280;50516;52.272;5.136;2023-02-17T10:05:25;101694.31;;;11.32;100.00
64200;BME280;50516;52.272;5.136;2023-02-17T10:07:58;101692.31;;;11.27;100.00
64200;BME280;50516;52.272;5.136;2023-02-17T10:10:30;101697.56;;;11.29;100.00
64200;BME280;50516;52.272;5.136;2023-02-17T10:13:01;101707.44;;;11.30;100.00
64200;BME280;50516;52.272;5.136;2023-02-17T10:15:30;101703.38;;;11.32;100.00
64200;BME280;50516;52.272;5.136;2023-02-17T10:18:31;101707.34;;;11.42;100.00
64200;BME280;50516;52.272;5.136;2023-02-17T10:21:03;101709.84;;;11.43;100.00
64200;BME280;50516;52.272;5.136;2023-02-17T10:23:31;101706.63;;;11.29;100.00
64200;BME280;50516;52.272;5.136;2023-02-17T10:29:11;101705.22;;;11.49;100.00
64200;BME280;50516;52.272;5.136;2023-02-17T10:31:46;101699.41;;;11.45;100.00
64200;BME280;50516;52.272;5.136;2023-02-17T10:36:59;101711.91;;;11.58;100.00
64200;BME280;50516;52.272;5.136;2023-02-17T10:44:40;101688.34;;;11.67;99.51
64200;BME280;50516;52.272;5.136;2023-02-17T10:47:05;101699.25;;;11.57;99.85
64200;BME280;50516;52.272;5.136;2023-02-17T10:49:35;101721.06;;;11.91;99.11
64200;BME280;50516;52.272;5.136;2023-02-17T10:52:09;101714.56;;;11.75;97.94
64200;BME280;50516;52.272;5.136;2023-02-17T10:54:52;101726.41;;;11.76;98.85
64200;BME280;50516;52.272;5.136;2023-02-17T10:57:19;101729.53;;;11.84;98.60
64200;BME280;50516;52.272;5.136;2023-02-17T10:59:47;101750.03;;;11.72;98.86
64200;BME280;50516;52.272;5.136;2023-02-17T11:04:43;101736.47;;;11.65;99.05
64200;BME280;50516;52.272;5.136;2023-02-17T11:07:11;101755.41;;;11.61;99.34
64200;BME280;50516;52.272;5.136;2023-02-17T11:09:43;101749.06;;;11.61;99.22
64200;BME280;50516;52.272;5.136;2023-02-17T11:12:19;101748.69;;;11.74;98.79
64200;BME280;50516;52.272;5.136;2023-02-17T11:14:48;101768.06;;;11.62;98.80
64200;BME280;50516;52.272;5.136;2023-02-17T11:17:35;101771.06;;;11.61;98.80
64200;BME280;50516;52.272;5.136;2023-02-17T11:20:24;101758.75;;;11.63;98.87
64200;BME280;50516;52.272;5.136;2023-02-17T11:23:21;101759.03;;;11.67;98.76
64200;BME280;50516;52.272;5.136;2023-02-17T11:26:10;101770.75;;;11.57;98.63
64200;BME280;50516;52.272;5.136;2023-02-17T11:28:36;101769.63;;;11.53;99.13
64200;BME280;50516;52.272;5.136;2023-02-17T11:31:01;101786.50;;;11.62;98.81
64200;BME280;50516;52.272;5.136;2023-02-17T11:33:37;101776.06;;;11.64;98.71
64200;BME280;50516;52.272;5.136;2023-02-17T11:36:05;101789.88;;;11.69;98.49
64200;BME280;50516;52.272;5.136;2023-02-17T11:41:04;101774.59;;;11.78;97.54
64200;BME280;50516;52.272;5.136;2023-02-17T11:43:31;101781.00;;;11.84;97.03
64200;BME280;50516;52.272;5.136;2023-02-17T11:57:44;101782.78;;;11.51;98.45
64200;BME280;50516;52.272;5.136;2023-02-17T12:06:07;101806.59;;;11.40;98.43
64200;BME280;50516;52.272;5.136;2023-02-17T12:14:08;101817.34;;;11.42;98.61
64200;BME280;50516;52.272;5.136;2023-02-17T12:16:54;101803.59;;;11.42;99.03
64200;BME280;50516;52.272;5.136;2023-02-17T12:19:44;101819.16;;;11.36;99.22
64200;BME280;50516;52.272;5.136;2023-02-17T12:27:57;101822.22;;;11.40;98.87
64200;BME280;50516;52.272;5.136;2023-02-17T12:35:49;101819.28;;;11.46;98.49
64200;BME280;50516;52.272;5.136;2023-02-17T12:38:33;101827.47;;;11.41;98.92
64200;BME280;50516;52.272;5.136;2023-02-17T12:41:26;101825.97;;;11.50;98.72
64200;BME280;50516;52.272;5.136;2023-02-17T12:43:58;101824.09;;;11.56;97.85
64200;BME280;50516;52.272;5.136;2023-02-17T12:46:36;101823.94;;;11.63;97.36
64200;BME280;50516;52.272;5.136;2023-02-17T12:49:08;101812.78;;;11.75;96.69
64200;BME280;50516;52.272;5.136;2023-02-17T12:51:43;101816.06;;;11.72;97.17
64200;BME280;50516;52.272;5.136;2023-02-17T12:56:53;101819.38;;;11.74;96.93
64200;BME280;50516;52.272;5.136;2023-02-17T12:59:31;101829.16;;;11.86;96.52
64200;BME280;50516;52.272;5.136;2023-02-17T13:02:08;101836.28;;;12.04;95.08
64200;BME280;50516;52.272;5.136;2023-02-17T13:04:34;101817.69;;;12.17;94.63
64200;BME280;50516;52.272;5.136;2023-02-17T13:07:15;101814.22;;;12.27;94.12
64200;BME280;50516;52.272;5.136;2023-02-17T13:09:44;101805.28;;;12.14;94.16
64200;BME280;50516;52.272;5.136;2023-02-17T13:14:55;101844.53;;;12.04;93.52
64200;BME280;50516;52.272;5.136;2023-02-17T13:17:30;101851.97;;;12.04;94.38
64200;BME280;50516;52.272;5.136;2023-02-17T13:22:39;101825.69;;;12.18;93.86
64200;BME280;50516;52.272;5.136;2023-02-17T13:25:06;101819.13;;;12.19;93.30
64200;BME280;50516;52.272;5.136;2023-02-17T13:27:36;101832.81;;;12.41;93.15
64200;BME280;50516;52.272;5.136;2023-02-17T13:32:46;101842.13;;;12.35;93.03
64200;BME280;50516;52.272;5.136;2023-02-17T13:37:48;101841.59;;;12.38;92.92
64200;BME280;50516;52.272;5.136;2023-02-17T13:42:41;101840.25;;;12.41;91.88
64200;BME280;50516;52.272;5.136;2023-02-17T13:45:28;101832.56;;;12.43;91.81
64200;BME280;50516;52.272;5.136;2023-02-17T13:47:56;101824.34;;;12.48;92.13
64200;BME280;50516;52.272;5.136;2023-02-17T13:50:32;101828.72;;;12.44;91.48
64200;BME280;50516;52.272;5.136;2023-02-17T13:52:59;101831.06;;;12.63;91.83
64200;BME280;50516;52.272;5.136;2023-02-17T13:55:25;101835.41;;;12.53;91.21
64200;BME280;50516;52.272;5.136;2023-02-17T13:57:56;101834.91;;;12.56;91.20
64200;BME280;50516;52.272;5.136;2023-02-17T14:00:25;101808.03;;;12.74;90.97
64200;BME280;50516;52.272;5.136;2023-02-17T14:02:53;101812.78;;;12.84;89.89
64200;BME280;50516;52.272;5.136;2023-02-17T14:06:05;101812.59;;;12.90;90.30
64200;BME280;50516;52.272;5.136;2023-02-17T14:08:12;101840.72;;;12.92;89.25
64200;BME280;50516;52.272;5.136;2023-02-17T14:10:39;101837.69;;;12.94;90.04
64200;BME280;50516;52.272;5.136;2023-02-17T14:13:09;101838.06;;;12.75;90.21
64200;BME280;50516;52.272;5.136;2023-02-17T14:15:34;101825.44;;;12.79;90.75